Time;durP1;ratioP1;P1;durP2;ratioP2;P2;SDS_P1;SDS_P2;PMS_P1;PMS_P2;Temp;Humidity;BMP_temperature;BMP_pressure;BME280_temperature;BME280_humidity;BME280_pressure;Samples;Min_cycle;Max_cycle;Signal;HPM_P1;HPM_P2
2021/12/12 00:01:12;;;;;;;10.73;7.75;;;3.50;99.90;;;;;;5086983;28;20493;-81
2021/12/12 00:03:47;;;;;;;10.93;6.35;;;3.50;99.90;;;;;;5093477;28;20083;-81
2021/12/12 00:06:32;;;;;;;10.32;7.00;;;3.50;99.90;;;;;;5089143;28;20036;-81
2021/12/12 00:09:16;;;;;;;14.32;9.93;;;3.50;99.90;;;;;;5090154;28;20040;-81
2021/12/12 00:11:42;;;;;;;27.05;8.18;;;3.50;99.90;;;;;;5080446;28;20092;-81
2021/12/12 00:14:09;;;;;;;;;;;3.60;99.90;;;;;;5058885;28;20045;-81
2021/12/12 00:16:37;;;;;;;15.07;6.53;;;3.60;99.90;;;;;;5081342;28;19977;-81
2021/12/12 00:19:03;;;;;;;12.65;6.05;;;3.70;99.90;;;;;;5091303;28;20055;-81
2021/12/12 00:21:32;;;;;;;15.18;6.43;;;3.60;99.90;;;;;;5071313;28;20190;-81
2021/12/12 00:23:59;;;;;;;11.57;7.40;;;3.70;99.90;;;;;;5078415;28;20052;-82
2021/12/12 00:26:26;;;;;;;9.38;6.82;;;3.70;99.90;;;;;;5064384;28;20040;-81
2021/12/12 00:28:52;;;;;;;8.13;6.43;;;3.70;99.90;;;;;;5068279;28;20091;-82
2021/12/12 00:31:21;;;;;;;12.55;5.28;;;3.70;99.90;;;;;;5081481;28;20047;-81
2021/12/12 00:33:52;;;;;;;10.23;7.68;;;3.70;99.90;;;;;;5090623;28;20040;-81
2021/12/12 00:36:18;;;;;;;16.05;8.55;;;3.70;99.90;;;;;;5062784;28;20036;-82
2021/12/12 00:38:58;;;;;;;11.82;5.28;;;3.70;99.90;;;;;;5087069;28;20036;-82
2021/12/12 00:41:40;;;;;;;13.32;8.05;;;3.70;99.90;;;;;;5072147;28;20047;-81
2021/12/12 00:44:08;;;;;;;9.35;7.10;;;3.70;99.90;;;;;;5087683;28;20054;-82
2021/12/12 00:46:33;;;;;;;14.25;7.45;;;3.70;99.90;;;;;;5075616;28;20059;-81
2021/12/12 00:48:59;;;;;;;14.93;7.85;;;3.70;99.90;;;;;;5081303;28;20036;-82
2021/12/12 00:51:32;;;;;;;8.48;5.70;;;3.70;99.90;;;;;;5061895;28;20101;-82
2021/12/12 00:53:58;;;;;;;21.45;8.73;;;3.80;99.90;;;;;;5073420;28;20036;-82
2021/12/12 00:56:24;;;;;;;13.00;7.20;;;3.70;99.90;;;;;;5072670;28;20044;-81
2021/12/12 00:58:50;;;;;;;11.43;8.68;;;3.80;99.90;;;;;;5077902;28;20036;-82
2021/12/12 01:01:24;;;;;;;15.07;7.35;;;3.80;99.90;;;;;;5082882;28;20108;-82
2021/12/12 01:04:01;;;;;;;11.32;7.35;;;3.80;99.90;;;;;;5084389;28;20076;-81
2021/12/12 01:06:27;;;;;;;11.23;5.80;;;3.80;99.90;;;;;;5081074;28;20079;-83
2021/12/12 01:08:56;;;;;;;10.73;6.10;;;3.70;99.90;;;;;;5077616;28;20043;-81
2021/12/12 01:11:31;;;;;;;28.45;7.47;;;3.80;99.90;;;;;;5087562;28;20036;-81
2021/12/12 01:13:58;;;;;;;11.27;6.47;;;3.80;99.90;;;;;;5080271;28;20482;-82
2021/12/12 01:16:29;;;;;;;13.85;8.65;;;4.00;99.90;;;;;;5076626;28;20508;-83
2021/12/12 01:19:03;;;;;;;10.52;6.80;;;3.80;99.90;;;;;;5087857;28;20422;-82
2021/12/12 01:21:34;;;;;;;18.80;9.07;;;3.80;99.90;;;;;;5087838;28;20181;-81
2021/12/12 01:24:09;;;;;;;12.13;6.13;;;3.80;99.90;;;;;;5085300;28;20072;-82
2021/12/12 01:26:36;;;;;;;14.73;8.38;;;3.80;99.90;;;;;;5087088;28;20044;-82
2021/12/12 01:29:03;;;;;;;11.18;6.30;;;3.90;99.90;;;;;;5085711;28;20060;-81
2021/12/12 01:31:32;;;;;;;13.05;7.93;;;4.20;99.90;;;;;;5084389;28;20048;-83
2021/12/12 01:34:10;;;;;;;13.70;5.88;;;3.80;99.90;;;;;;5093017;28;20044;-82
2021/12/12 01:37:04;;;;;;;21.00;8.68;;;3.80;99.90;;;;;;5081016;28;20036;-85
2021/12/12 01:39:33;;;;;;;15.80;9.40;;;4.30;99.90;;;;;;5086614;28;20479;-83
2021/12/12 01:42:04;;;;;;;17.60;7.30;;;4.30;99.90;;;;;;5070807;28;20055;-82
2021/12/12 01:44:40;;;;;;;16.88;9.88;;;3.90;99.90;;;;;;5068397;28;20062;-81
2021/12/12 01:47:10;;;;;;;12.45;6.20;;;3.90;99.90;;;;;;5083502;28;20036;-82
2021/12/12 01:49:40;;;;;;;9.75;6.40;;;3.90;99.90;;;;;;5077505;28;20186;-83
2021/12/12 01:52:11;;;;;;;18.02;8.13;;;4.30;99.90;;;;;;5066515;28;20485;-84
2021/12/12 01:54:44;;;;;;;15.55;6.30;;;3.90;99.90;;;;;;5077721;28;20044;-81
2021/12/12 01:57:18;;;;;;;21.88;11.65;;;4.10;99.90;;;;;;5068589;28;20048;-80
2021/12/12 01:59:46;;;;;;;17.83;8.98;;;3.90;99.90;;;;;;5077790;28;20493;-84
2021/12/12 02:02:17;;;;;;;17.10;8.98;;;3.80;99.90;;;;;;5078128;28;20045;-84
2021/12/12 02:04:47;;;;;;;9.80;7.65;;;3.90;99.90;;;;;;5077949;28;20143;-84
2021/12/12 02:07:17;;;;;;;9.77;6.57;;;3.90;99.90;;;;;;5077963;28;20045;-86
2021/12/12 02:09:44;;;;;;;11.18;8.00;;;3.90;99.90;;;;;;5081769;28;20094;-83
2021/12/12 02:12:10;;;;;;;13.95;10.38;;;3.90;99.90;;;;;;5091977;28;20039;-84
2021/12/12 02:14:42;;;;;;;13.45;9.88;;;3.90;99.90;;;;;;5093896;28;20040;-87
2021/12/12 02:17:21;;;;;;;15.02;7.32;;;3.90;99.90;;;;;;5075265;28;20374;-83
2021/12/12 02:20:14;;;;;;;17.20;10.32;;;3.90;99.90;;;;;;5096164;28;20123;-87
2021/12/12 02:23:02;;;;;;;16.45;7.65;;;4.00;99.90;;;;;;5068178;28;20090;-82
2021/12/12 02:36:31;;;;;;;9.63;6.32;;;4.00;99.90;;;;;;5071462;28;20087;-82
2021/12/12 02:38:57;;;;;;;12.52;8.50;;;4.10;99.90;;;;;;5077226;28;20047;-85
2021/12/12 02:41:26;;;;;;;7.72;6.13;;;4.00;99.90;;;;;;5086626;28;20063;-82
2021/12/12 02:44:01;;;;;;;23.65;8.05;;;4.00;99.90;;;;;;5086551;28;20050;-83
2021/12/12 02:46:34;;;;;;;10.68;8.25;;;4.10;99.90;;;;;;5077535;28;20067;-84
2021/12/12 02:49:08;;;;;;;21.65;5.28;;;4.10;99.90;;;;;;5088955;28;20119;-82
2021/12/12 02:51:38;;;;;;;8.80;5.82;;;4.10;99.90;;;;;;5090815;28;20098;-85
2021/12/12 02:54:05;;;;;;;11.63;5.88;;;4.40;99.90;;;;;;5088759;28;20131;-85
2021/12/12 02:56:34;;;;;;;7.18;6.32;;;4.10;99.90;;;;;;5093109;28;20078;-83
2021/12/12 02:59:03;;;;;;;9.52;5.13;;;4.10;99.90;;;;;;5086531;28;20040;-85
2021/12/12 03:01:47;;;;;;;19.80;9.13;;;4.10;99.90;;;;;;5092148;28;20041;-82
2021/12/12 03:04:13;;;;;;;8.38;7.18;;;4.10;99.90;;;;;;5091460;28;20040;-82
2021/12/12 03:06:41;;;;;;;11.93;8.23;;;4.10;99.90;;;;;;5084168;28;20090;-82
2021/12/12 03:09:25;;;;;;;12.63;6.47;;;4.10;99.90;;;;;;5085786;28;20037;-85
2021/12/12 03:11:56;;;;;;;8.63;5.80;;;4.10;99.90;;;;;;5079656;28;20077;-82
2021/12/12 03:14:22;;;;;;;12.68;7.18;;;4.20;99.90;;;;;;5063156;28;20185;-82
2021/12/12 03:16:49;;;;;;;9.35;4.85;;;4.20;99.90;;;;;;5073531;28;20048;-82
2021/12/12 03:19:19;;;;;;;6.88;6.20;;;4.10;99.90;;;;;;5093481;28;20039;-83
2021/12/12 03:21:46;;;;;;;12.27;5.30;;;4.40;99.90;;;;;;5087993;28;20040;-84
2021/12/12 03:24:19;;;;;;;14.75;4.20;;;4.20;99.90;;;;;;5070508;28;20043;-85
2021/12/12 03:26:46;;;;;;;5.57;4.03;;;4.20;99.90;;;;;;5077261;28;20115;-87
2021/12/12 03:29:13;;;;;;;12.93;7.35;;;4.20;99.90;;;;;;5092133;28;20111;-85
2021/12/12 03:31:46;;;;;;;9.48;5.47;;;4.30;99.90;;;;;;5082135;28;20056;-83
2021/12/12 03:34:22;;;;;;;9.63;6.97;;;5.00;99.90;;;;;;5087599;28;20131;-83
2021/12/12 03:36:49;;;;;;;9.55;5.70;;;4.30;99.90;;;;;;5072492;28;20054;-82
2021/12/12 03:39:19;;;;;;;6.22;5.35;;;4.80;99.90;;;;;;5088765;28;20052;-84
2021/12/12 03:41:45;;;;;;;10.23;5.60;;;4.40;99.90;;;;;;5084074;28;20044;-82
2021/12/12 03:44:16;;;;;;;15.10;8.40;;;4.40;99.90;;;;;;5085003;28;20481;-82
2021/12/12 03:46:46;;;;;;;7.85;6.20;;;4.40;99.90;;;;;;5083968;28;20492;-81
2021/12/12 03:49:12;;;;;;;7.95;6.32;;;4.40;99.90;;;;;;5092140;28;20046;-83
2021/12/12 03:51:39;;;;;;;;;;;4.50;99.90;;;;;;5089999;28;20043;-82
2021/12/12 03:54:05;;;;;;;9.23;5.43;;;4.50;99.90;;;;;;5085413;28;19965;-81
2021/12/12 03:56:31;;;;;;;10.85;6.75;;;4.50;99.90;;;;;;5067448;28;20308;-83
2021/12/12 03:58:57;;;;;;;;;;;4.50;99.90;;;;;;5076053;28;20047;-84
2021/12/12 04:01:35;;;;;;;13.10;8.25;;;4.60;99.90;;;;;;5072062;28;19920;-82
2021/12/12 04:04:08;;;;;;;4.88;3.92;;;4.60;99.90;;;;;;5062581;28;20059;-83
2021/12/12 04:06:33;;;;;;;7.15;5.88;;;4.60;99.90;;;;;;5087635;28;20082;-82
2021/12/12 04:09:00;;;;;;;5.47;4.93;;;4.60;99.90;;;;;;5086131;28;20435;-89
2021/12/12 04:11:37;;;;;;;9.25;5.68;;;4.60;99.90;;;;;;5081670;28;20041;-83
2021/12/12 04:14:05;;;;;;;6.75;5.15;;;4.60;99.90;;;;;;5076340;28;20040;-83
2021/12/12 04:16:33;;;;;;;13.05;4.85;;;4.70;99.90;;;;;;5080878;28;20070;-86
2021/12/12 04:18:59;;;;;;;8.15;4.25;;;4.70;99.90;;;;;;5054605;28;20051;-82
2021/12/12 04:21:26;;;;;;;;;;;4.70;99.90;;;;;;5089595;28;20032;-82
2021/12/12 04:23:53;;;;;;;9.65;5.60;;;4.70;99.90;;;;;;5087114;28;19916;-82
2021/12/12 04:26:26;;;;;;;12.55;4.45;;;4.80;99.90;;;;;;5085909;28;20132;-91
2021/12/12 04:29:03;;;;;;;10.30;3.83;;;4.70;99.90;;;;;;5060507;28;20079;-84
2021/12/12 04:31:30;;;;;;;6.97;5.07;;;5.00;99.90;;;;;;5089078;28;20044;-84
2021/12/12 04:33:56;;;;;;;7.28;4.22;;;4.70;99.90;;;;;;5064590;28;20070;-84
2021/12/12 04:36:31;;;;;;;;;;;5.50;99.90;;;;;;5083679;28;20048;-82
2021/12/12 04:39:11;;;;;;;6.57;3.78;;;4.70;99.90;;;;;;5090665;28;20273;-83
2021/12/12 04:41:38;;;;;;;9.52;6.90;;;4.70;99.90;;;;;;5086051;28;20094;-85
2021/12/12 04:44:04;;;;;;;4.30;3.90;;;4.70;99.90;;;;;;5085268;28;20048;-86
2021/12/12 04:52:19;;;;;;;7.55;4.88;;;4.70;99.90;;;;;;5078962;28;20036;-86
2021/12/12 04:54:53;;;;;;;3.75;2.90;;;4.60;99.90;;;;;;5084762;28;20401;-85
2021/12/12 04:57:44;;;;;;;6.05;4.43;;;5.20;99.90;;;;;;5061637;28;20060;-84
2021/12/12 05:00:17;;;;;;;5.63;4.07;;;4.70;99.90;;;;;;5079173;28;20378;-83
2021/12/12 05:03:02;;;;;;;5.18;3.72;;;4.60;99.90;;;;;;5089725;28;20048;-85
2021/12/12 05:05:53;;;;;;;5.38;3.83;;;4.60;99.90;;;;;;5076918;28;20355;-87
2021/12/12 05:08:39;;;;;;;5.70;4.25;;;4.60;99.90;;;;;;5061146;28;20052;-85
2021/12/12 05:11:26;;;;;;;4.88;3.25;;;4.60;99.90;;;;;;5078402;28;20040;-84
2021/12/12 05:14:04;;;;;;;8.57;4.43;;;4.60;99.90;;;;;;5078961;28;20040;-84
2021/12/12 05:16:37;;;;;;;4.22;3.65;;;4.60;99.90;;;;;;5073362;28;20041;-87
2021/12/12 05:19:17;;;;;;;9.38;3.63;;;4.60;99.90;;;;;;5066588;28;20119;-87
2021/12/12 05:21:49;;;;;;;3.58;3.28;;;4.60;99.90;;;;;;5085480;28;20052;-84
2021/12/12 05:24:18;;;;;;;8.73;2.65;;;4.60;99.90;;;;;;5077502;28;20044;-84
2021/12/12 05:26:55;;;;;;;4.72;3.40;;;4.70;99.90;;;;;;5086064;28;20073;-84
2021/12/12 05:29:34;;;;;;;4.45;3.03;;;4.60;99.90;;;;;;5086728;28;20044;-85
2021/12/12 05:32:02;;;;;;;12.35;4.40;;;4.70;99.90;;;;;;5094279;28;20067;-83
2021/12/12 05:34:30;;;;;;;4.85;3.47;;;4.70;99.90;;;;;;5068208;28;20482;-85
2021/12/12 05:36:57;;;;;;;2.63;1.92;;;4.70;99.90;;;;;;5068799;28;20103;-84
2021/12/12 05:39:25;;;;;;;7.28;3.25;;;4.70;99.90;;;;;;5082567;28;20388;-83
2021/12/12 05:41:53;;;;;;;4.43;3.25;;;4.80;99.90;;;;;;5079304;28;20097;-84
2021/12/12 05:44:19;;;;;;;2.95;2.35;;;4.80;99.90;;;;;;5084054;28;20056;-82
2021/12/12 05:46:45;;;;;;;;;;;4.90;99.90;;;;;;5087145;28;20377;-81
2021/12/12 05:49:11;;;;;;;5.80;4.63;;;5.00;99.90;;;;;;5091598;28;19916;-81
2021/12/12 05:51:37;;;;;;;;;;;4.90;99.90;;;;;;5090029;28;20121;-82
2021/12/12 05:54:04;;;;;;;5.20;3.95;;;4.90;99.90;;;;;;5082002;28;19920;-81
2021/12/12 05:56:35;;;;;;;2.35;2.15;;;5.00;99.90;;;;;;5088697;28;20512;-83
2021/12/12 05:59:02;;;;;;;3.25;2.85;;;5.00;99.90;;;;;;5090658;28;20384;-89
2021/12/12 06:01:30;;;;;;;2.97;2.65;;;5.00;99.90;;;;;;5087039;28;20448;-83
2021/12/12 06:03:56;;;;;;;7.13;5.20;;;5.00;99.90;;;;;;5093123;28;20106;-84
2021/12/12 06:06:26;;;;;;;6.80;4.53;;;5.10;99.90;;;;;;5075533;28;20069;-81
2021/12/12 06:08:59;;;;;;;5.97;4.63;;;5.10;99.90;;;;;;5087337;28;20043;-83
2021/12/12 06:11:28;;;;;;;5.25;3.50;;;5.30;99.90;;;;;;5066739;28;20370;-82
2021/12/12 06:13:54;;;;;;;4.78;2.95;;;5.30;99.90;;;;;;5081569;28;20028;-82
2021/12/12 06:16:20;;;;;;;;;;;5.40;99.90;;;;;;5082221;28;20044;-84
2021/12/12 06:18:53;;;;;;;3.65;3.35;;;5.10;99.90;;;;;;5090554;28;20545;-82
2021/12/12 06:21:19;;;;;;;5.10;3.67;;;5.20;99.90;;;;;;5092625;28;20306;-81
2021/12/12 06:23:45;;;;;;;4.25;3.50;;;4.90;99.90;;;;;;5065683;28;20036;-80
2021/12/12 06:26:11;;;;;;;6.13;3.17;;;5.30;99.90;;;;;;5074081;28;20089;-83
2021/12/12 06:28:40;;;;;;;7.30;4.07;;;5.30;99.90;;;;;;5080475;28;20041;-82
2021/12/12 06:31:07;;;;;;;3.90;3.05;;;5.80;99.90;;;;;;5083572;28;20060;-81
2021/12/12 06:33:35;;;;;;;3.30;2.95;;;5.30;99.90;;;;;;5093686;28;20044;-82
2021/12/12 06:36:02;;;;;;;2.72;2.08;;;5.30;99.90;;;;;;5078062;28;20542;-83
2021/12/12 06:38:28;;;;;;;5.97;3.42;;;5.30;99.90;;;;;;5094336;28;20401;-83
2021/12/12 06:40:54;;;;;;;4.18;2.83;;;5.20;99.90;;;;;;5080128;28;20044;-84
2021/12/12 06:43:22;;;;;;;;;;;5.30;99.90;;;;;;5090601;28;20051;-83
2021/12/12 06:45:48;;;;;;;4.05;2.75;;;5.90;99.90;;;;;;5080884;28;19970;-83
2021/12/12 06:48:14;;;;;;;4.88;2.95;;;5.40;99.90;;;;;;5081099;28;20036;-83
2021/12/12 06:50:42;;;;;;;5.93;3.50;;;5.40;99.90;;;;;;5083546;28;20048;-82
2021/12/12 06:53:11;;;;;;;3.28;2.55;;;5.30;99.90;;;;;;5088864;28;20119;-85
2021/12/12 06:55:43;;;;;;;5.05;3.20;;;5.50;99.90;;;;;;5073688;28;20050;-84
2021/12/12 06:58:09;;;;;;;4.57;3.25;;;5.70;99.90;;;;;;5063815;28;20490;-84
2021/12/12 07:00:36;;;;;;;3.53;3.20;;;5.50;99.90;;;;;;5092765;28;20040;-82
2021/12/12 07:03:02;;;;;;;5.15;3.15;;;5.60;99.90;;;;;;5063454;28;20046;-84
2021/12/12 07:05:31;;;;;;;4.75;2.63;;;5.10;99.90;;;;;;5083976;28;20045;-87
2021/12/12 07:07:58;;;;;;;6.03;4.43;;;5.60;99.90;;;;;;5057823;28;20051;-80
2021/12/12 07:10:26;;;;;;;5.82;2.83;;;5.90;99.90;;;;;;5088182;28;20040;-82
2021/12/12 07:12:56;;;;;;;5.25;2.90;;;5.70;99.90;;;;;;5090038;28;20044;-83
2021/12/12 07:15:25;;;;;;;4.43;2.80;;;5.70;99.90;;;;;;5093499;28;20488;-83
2021/12/12 07:17:56;;;;;;;3.22;2.63;;;5.70;99.90;;;;;;5091466;28;20104;-82
2021/12/12 07:20:22;;;;;;;5.97;4.30;;;5.80;99.90;;;;;;5092143;28;20040;-81
2021/12/12 07:22:48;;;;;;;5.32;4.05;;;6.40;99.90;;;;;;5064781;28;20043;-83
2021/12/12 07:25:15;;;;;;;4.28;3.00;;;5.70;99.90;;;;;;5073894;28;20089;-83
2021/12/12 07:27:40;;;;;;;3.42;3.13;;;6.30;99.90;;;;;;5077897;28;20040;-83
2021/12/12 07:30:08;;;;;;;6.97;4.13;;;5.90;99.90;;;;;;5081528;28;20054;-86
2021/12/12 07:32:37;;;;;;;6.30;4.15;;;5.70;99.90;;;;;;5085027;28;20040;-86
2021/12/12 07:35:07;;;;;;;3.90;2.90;;;5.80;99.90;;;;;;5091641;28;20052;-83
2021/12/12 07:37:32;;;;;;;5.35;3.58;;;5.80;99.90;;;;;;5094319;28;20119;-82
2021/12/12 07:39:58;;;;;;;4.90;3.17;;;5.80;99.90;;;;;;5086419;28;20075;-83
2021/12/12 07:42:24;;;;;;;7.50;3.50;;;5.80;99.90;;;;;;5070741;28;20051;-81
2021/12/12 07:44:50;;;;;;;5.07;3.78;;;5.90;99.90;;;;;;5083991;28;20049;-81
2021/12/12 07:47:17;;;;;;;5.43;3.00;;;5.50;99.90;;;;;;5074616;28;20123;-83
2021/12/12 07:49:47;;;;;;;6.85;4.72;;;6.20;99.90;;;;;;5097913;28;20050;-80
2021/12/12 07:52:19;;;;;;;5.38;4.22;;;5.90;99.90;;;;;;5091281;28;20370;-82
2021/12/12 07:54:49;;;;;;;6.28;4.28;;;5.90;99.90;;;;;;5084481;28;20113;-81
2021/12/12 07:57:16;;;;;;;5.32;4.18;;;5.90;99.90;;;;;;5070315;28;20127;-81
2021/12/12 07:59:43;;;;;;;4.07;3.42;;;6.00;99.90;;;;;;5078900;28;20389;-82
2021/12/12 08:02:11;;;;;;;4.10;3.15;;;5.90;99.90;;;;;;5070608;28;20126;-82
2021/12/12 08:04:38;;;;;;;5.20;3.45;;;6.00;99.90;;;;;;5087119;28;20123;-81
2021/12/12 08:07:06;;;;;;;6.40;4.38;;;6.00;99.90;;;;;;5080335;28;20084;-83
2021/12/12 08:09:33;;;;;;;3.63;2.92;;;6.10;99.90;;;;;;5072712;28;20041;-82
2021/12/12 08:11:58;;;;;;;;;;;6.00;99.90;;;;;;5070347;28;20044;-81
2021/12/12 08:14:27;;;;;;;4.85;2.55;;;6.10;99.90;;;;;;5075511;28;20346;-84
2021/12/12 08:16:56;;;;;;;4.85;2.53;;;6.10;99.90;;;;;;5081163;28;20066;-81
2021/12/12 08:19:25;;;;;;;8.40;5.22;;;6.10;99.90;;;;;;5082216;28;20091;-86
2021/12/12 08:21:55;;;;;;;3.55;2.55;;;6.10;99.90;;;;;;5080155;28;20036;-81
2021/12/12 08:24:27;;;;;;;4.03;3.40;;;6.20;99.90;;;;;;5076347;28;20126;-81
2021/12/12 08:26:53;;;;;;;8.70;4.22;;;6.20;99.90;;;;;;5081338;28;20499;-83
2021/12/12 08:29:19;;;;;;;8.27;5.43;;;6.20;99.90;;;;;;5072515;28;20127;-82
2021/12/12 08:31:46;;;;;;;4.97;3.28;;;6.30;99.90;;;;;;5080183;28;20079;-81
2021/12/12 08:34:13;;;;;;;9.32;4.55;;;6.30;99.90;;;;;;5081003;28;20040;-81
2021/12/12 08:36:46;;;;;;;4.15;3.72;;;6.20;99.90;;;;;;5070452;28;20585;-81
2021/12/12 08:39:13;;;;;;;6.13;4.38;;;6.30;99.90;;;;;;5082375;28;20474;-81
2021/12/12 08:41:40;;;;;;;4.70;2.85;;;6.30;99.90;;;;;;5077506;28;20060;-81
2021/12/12 08:44:08;;;;;;;10.15;4.30;;;6.30;99.90;;;;;;5089752;28;20071;-83
2021/12/12 08:46:34;;;;;;;6.07;3.05;;;6.40;99.90;;;;;;5056615;28;20040;-82
2021/12/12 08:49:01;;;;;;;8.13;5.30;;;6.40;99.90;;;;;;5090741;28;20036;-82
2021/12/12 08:51:32;;;;;;;11.18;4.88;;;6.40;99.90;;;;;;5065507;28;20047;-82
2021/12/12 08:54:03;;;;;;;7.70;4.22;;;6.40;99.90;;;;;;5089967;28;20044;-82
2021/12/12 08:56:41;;;;;;;3.97;3.58;;;6.40;99.90;;;;;;5104767;28;20081;-81
2021/12/12 08:59:14;;;;;;;3.95;3.28;;;6.50;99.90;;;;;;5079785;28;20048;-79
2021/12/12 09:01:42;;;;;;;4.32;2.60;;;6.50;99.90;;;;;;5079824;28;20469;-81
2021/12/12 09:04:09;;;;;;;8.93;4.57;;;6.50;99.90;;;;;;5087444;28;20097;-84
2021/12/12 09:07:15;;;;;;;6.85;5.18;;;6.50;99.90;;;;;;5085285;28;20071;-83
2021/12/12 09:09:56;;;;;;;13.38;5.82;;;6.50;99.90;;;;;;5060879;28;20056;-82
2021/12/12 09:12:26;;;;;;;5.00;4.47;;;6.50;99.90;;;;;;5041936;28;20390;-80
2021/12/12 09:15:09;;;;;;;10.23;4.38;;;6.60;99.90;;;;;;5084499;28;20121;-79
2021/12/12 09:17:43;;;;;;;9.68;5.30;;;6.60;99.90;;;;;;5081870;28;20388;-79
2021/12/12 09:20:48;;;;;;;7.25;4.60;;;6.60;99.90;;;;;;5086432;28;20116;-79
2021/12/12 09:23:21;;;;;;;10.50;6.15;;;6.60;99.90;;;;;;5076962;28;20063;-78
2021/12/12 09:26:00;;;;;;;8.65;5.65;;;6.70;99.90;;;;;;5078088;28;20044;-78
2021/12/12 09:29:01;;;;;;;8.20;4.45;;;6.80;99.90;;;;;;5069154;28;20047;-78
2021/12/12 09:31:29;;;;;;;6.13;5.43;;;6.80;99.90;;;;;;5061590;28;20059;-78
2021/12/12 09:34:12;;;;;;;11.63;4.60;;;6.80;99.90;;;;;;5087010;28;20048;-76
2021/12/12 09:36:51;;;;;;;5.03;4.60;;;6.80;99.90;;;;;;5067840;28;20037;-78
2021/12/12 09:39:25;;;;;;;3.70;3.40;;;6.80;99.90;;;;;;5077302;28;20148;-79
2021/12/12 09:42:10;;;;;;;8.45;5.65;;;6.90;99.90;;;;;;5089805;28;20359;-78
2021/12/12 09:45:07;;;;;;;11.02;5.60;;;7.00;99.90;;;;;;5085568;28;20047;-77
2021/12/12 09:48:14;;;;;;;11.38;5.07;;;7.00;99.90;;;;;;5043042;28;20052;-78
2021/12/12 09:51:15;;;;;;;4.10;3.67;;;7.00;99.90;;;;;;5085442;28;20113;-78
2021/12/12 09:54:06;;;;;;;8.68;5.85;;;7.10;99.90;;;;;;5080710;28;20351;-78
2021/12/12 09:57:05;;;;;;;7.95;6.60;;;7.10;99.90;;;;;;5071574;28;20032;-78
2021/12/12 10:00:09;;;;;;;8.75;5.55;;;7.20;99.90;;;;;;5086704;28;20113;-79
2021/12/12 10:02:41;;;;;;;14.52;6.82;;;7.20;99.90;;;;;;5079452;28;20044;-78
2021/12/12 10:05:39;;;;;;;17.17;8.45;;;7.30;99.90;;;;;;5092427;28;20040;-79
2021/12/12 10:08:43;;;;;;;12.98;6.18;;;7.40;99.90;;;;;;5071221;28;20084;-80
2021/12/12 10:11:17;;;;;;;11.52;7.05;;;7.40;99.90;;;;;;5060169;28;20131;-77
2021/12/12 10:13:51;;;;;;;12.02;7.25;;;7.40;99.90;;;;;;5105074;28;20040;-78
2021/12/12 10:16:31;;;;;;;10.63;6.65;;;7.40;99.90;;;;;;5075518;28;20390;-77
2021/12/12 10:19:08;;;;;;;10.23;5.95;;;7.50;99.90;;;;;;5081962;28;20036;-80
2021/12/12 10:21:57;;;;;;;14.38;6.93;;;7.60;99.90;;;;;;5078558;28;20637;-78
2021/12/12 10:24:35;;;;;;;15.32;6.10;;;7.60;99.90;;;;;;5046914;28;20055;-78
2021/12/12 10:27:13;;;;;;;13.30;7.68;;;7.60;99.90;;;;;;5091981;28;20032;-77
2021/12/12 10:29:57;;;;;;;7.47;5.55;;;7.70;99.90;;;;;;5091541;28;20101;-77
2021/12/12 10:32:32;;;;;;;11.88;7.85;;;7.70;99.90;;;;;;5103610;28;20055;-76
2021/12/12 10:35:13;;;;;;;17.10;7.03;;;7.80;99.90;;;;;;5083945;28;20044;-77
2021/12/12 10:37:56;;;;;;;12.55;6.68;;;7.80;99.90;;;;;;5081270;28;20923;-79
2021/12/12 10:40:29;;;;;;;13.80;6.63;;;7.90;99.90;;;;;;5084066;28;20120;-77
2021/12/12 10:43:02;;;;;;;9.57;5.97;;;7.90;99.90;;;;;;5088274;28;20054;-78
2021/12/12 10:45:39;;;;;;;10.90;7.43;;;8.00;99.90;;;;;;5074929;28;20047;-79
2021/12/12 10:48:13;;;;;;;5.13;4.40;;;8.00;99.90;;;;;;5088453;28;20469;-79
2021/12/12 10:50:55;;;;;;;11.90;6.00;;;8.00;99.90;;;;;;5085780;28;20048;-79
2021/12/12 10:53:35;;;;;;;15.55;5.78;;;8.00;99.90;;;;;;5083898;28;20036;-79
2021/12/12 10:56:16;;;;;;;10.18;7.55;;;8.10;99.90;;;;;;5075254;28;20214;-77
2021/12/12 10:58:58;;;;;;;10.50;4.65;;;8.10;99.90;;;;;;5087483;28;20048;-82
2021/12/12 11:01:34;;;;;;;12.18;7.47;;;8.10;99.90;;;;;;5066253;28;20485;-79
2021/12/12 11:04:09;;;;;;;15.52;8.48;;;8.10;99.90;;;;;;5082634;28;20053;-78
2021/12/12 11:06:58;;;;;;;8.00;5.50;;;8.10;99.90;;;;;;5082065;28;20056;-79
2021/12/12 11:09:44;;;;;;;13.90;6.22;;;8.20;99.90;;;;;;5079577;28;20048;-78
2021/12/12 11:12:19;;;;;;;9.35;5.13;;;8.20;99.90;;;;;;5085910;28;20542;-79
2021/12/12 11:15:02;;;;;;;8.80;5.25;;;8.20;99.90;;;;;;5082813;28;20044;-78
2021/12/12 11:17:54;;;;;;;10.93;5.22;;;8.20;99.90;;;;;;5079655;28;20036;-79
2021/12/12 11:20:24;;;;;;;6.15;5.25;;;8.30;99.90;;;;;;5050423;28;20063;-80
2021/12/12 11:22:56;;;;;;;11.02;6.47;;;8.30;99.90;;;;;;5094618;28;20051;-77
2021/12/12 11:25:38;;;;;;;8.65;4.65;;;8.40;99.90;;;;;;5067398;28;20478;-78
2021/12/12 11:28:06;;;;;;;11.35;6.68;;;8.40;99.90;;;;;;5064663;28;20381;-80
2021/12/12 11:30:40;;;;;;;8.80;4.68;;;8.40;99.90;;;;;;5066107;28;20178;-82
2021/12/12 11:33:10;;;;;;;14.52;6.20;;;8.50;99.90;;;;;;5072433;28;20040;-81
2021/12/12 11:35:39;;;;;;;5.80;5.20;;;8.60;99.90;;;;;;5079954;28;20035;-79
2021/12/12 11:38:12;;;;;;;10.75;5.65;;;8.60;99.90;;;;;;5082103;28;20052;-80
2021/12/12 11:41:03;;;;;;;4.65;3.75;;;8.70;99.90;;;;;;5085989;28;20036;-81
2021/12/12 11:44:01;;;;;;;11.60;5.10;;;8.80;99.90;;;;;;5063679;28;20127;-81
2021/12/12 11:46:49;;;;;;;10.50;5.32;;;8.80;99.90;;;;;;5088332;28;20086;-79
2021/12/12 11:49:31;;;;;;;10.02;4.57;;;8.80;99.90;;;;;;5081638;28;20044;-79
2021/12/12 11:52:09;;;;;;;6.13;4.15;;;8.90;99.90;;;;;;5072547;28;20032;-80
2021/12/12 11:54:54;;;;;;;7.82;3.75;;;8.90;99.90;;;;;;5076625;28;20835;-79
2021/12/12 11:57:25;;;;;;;7.28;5.03;;;8.90;99.90;;;;;;5080755;28;20048;-78
2021/12/12 12:00:18;;;;;;;8.48;5.72;;;8.90;99.90;;;;;;5090291;28;20143;-79
2021/12/12 12:03:16;;;;;;;7.00;3.95;;;8.90;99.90;;;;;;5078583;28;20390;-79
2021/12/12 12:06:01;;;;;;;8.35;4.22;;;9.00;99.90;;;;;;5091532;28;20059;-77
2021/12/12 12:08:52;;;;;;;6.88;4.13;;;9.00;99.90;;;;;;5056369;28;20044;-77
2021/12/12 12:11:18;;;;;;;7.45;5.47;;;9.10;99.90;;;;;;5075199;28;20120;-77
2021/12/12 12:14:01;;;;;;;7.60;3.85;;;9.10;99.90;;;;;;5097848;28;20068;-78
2021/12/12 12:16:49;;;;;;;10.90;4.72;;;9.10;99.90;;;;;;5087808;28;20140;-80
2021/12/12 12:19:40;;;;;;;7.55;5.00;;;9.10;99.90;;;;;;5072870;28;20677;-79
2021/12/12 12:22:29;;;;;;;9.63;6.45;;;9.10;99.90;;;;;;5088505;28;20127;-76
2021/12/12 12:25:14;;;;;;;6.95;4.53;;;9.10;99.90;;;;;;5082880;28;20453;-76
2021/12/12 12:28:13;;;;;;;10.07;4.35;;;9.10;99.90;;;;;;5073709;28;20040;-77
2021/12/12 12:30:58;;;;;;;5.55;4.43;;;9.10;99.90;;;;;;5032268;28;20126;-82
2021/12/12 12:33:30;;;;;;;10.63;5.95;;;9.10;99.90;;;;;;5061552;28;20627;-80
2021/12/12 12:36:23;;;;;;;7.97;5.03;;;9.10;99.90;;;;;;5055547;28;20044;-76
2021/12/12 12:39:27;;;;;;;16.90;5.22;;;9.10;99.90;;;;;;5062763;28;20052;-81
2021/12/12 12:42:02;;;;;;;2.85;2.65;;;9.10;99.90;;;;;;5054918;28;20048;-77
2021/12/12 12:44:49;;;;;;;8.02;4.18;;;9.10;99.90;;;;;;5066786;28;20127;-79
2021/12/12 12:47:24;;;;;;;;;;;9.10;99.90;;;;;;5068556;28;20042;-78
2021/12/12 12:50:11;;;;;;;7.43;4.40;;;9.10;99.90;;;;;;5064297;28;19925;-78
2021/12/12 12:53:17;;;;;;;6.88;3.88;;;9.20;99.90;;;;;;5049176;28;20436;-79
2021/12/12 12:55:49;;;;;;;9.40;3.63;;;9.10;99.90;;;;;;5069253;28;20100;-79
2021/12/12 12:58:23;;;;;;;8.65;5.10;;;9.20;99.90;;;;;;5066326;28;20051;-80
2021/12/12 13:00:55;;;;;;;6.93;3.88;;;9.20;99.90;;;;;;5051771;28;20136;-76
2021/12/12 13:03:55;;;;;;;6.35;3.70;;;9.20;99.90;;;;;;5061018;28;20071;-77
2021/12/12 13:06:48;;;;;;;9.45;3.25;;;9.20;99.90;;;;;;5051639;28;20067;-78
2021/12/12 13:09:27;;;;;;;4.63;3.85;;;9.20;99.90;;;;;;5063060;28;20135;-80
2021/12/12 13:12:11;;;;;;;4.13;2.53;;;9.20;99.90;;;;;;5056105;28;20033;-80
2021/12/12 13:14:58;;;;;;;6.90;3.85;;;9.20;99.90;;;;;;5043403;28;20051;-80
2021/12/12 13:18:06;;;;;;;4.70;3.67;;;9.20;99.90;;;;;;5066612;28;20044;-79
2021/12/12 13:20:55;;;;;;;3.47;2.13;;;9.20;99.90;;;;;;5050063;28;20048;-78
2021/12/12 13:23:33;;;;;;;4.97;2.92;;;9.30;99.90;;;;;;5065451;28;20080;-81
2021/12/12 13:26:04;;;;;;;7.07;4.70;;;9.30;99.90;;;;;;5065336;28;20052;-78
2021/12/12 13:29:03;;;;;;;6.00;3.67;;;9.30;99.90;;;;;;5065432;28;20389;-79
2021/12/12 13:31:39;;;;;;;5.90;4.07;;;9.40;99.90;;;;;;5038805;28;20780;-80
2021/12/12 13:34:16;;;;;;;;;;;9.40;99.90;;;;;;5042141;28;20521;-82
2021/12/12 13:36:57;;;;;;;4.03;2.92;;;9.50;99.90;;;;;;5027784;28;19932;-80
2021/12/12 13:39:48;;;;;;;6.13;4.18;;;9.40;99.90;;;;;;5052817;28;20180;-80
2021/12/12 13:42:44;;;;;;;2.88;2.30;;;9.40;99.90;;;;;;5010296;28;20057;-79
2021/12/12 13:45:29;;;;;;;4.38;3.35;;;9.40;99.90;;;;;;5046820;28;20068;-80
2021/12/12 13:48:15;;;;;;;12.57;3.17;;;9.40;99.90;;;;;;5041192;28;20478;-77
2021/12/12 13:51:09;;;;;;;3.08;2.13;;;9.40;99.90;;;;;;5048673;28;20053;-77